sensor_id;sensor_type;location;lat;lon;timestamp;pressure;altitude;pressure_sealevel;temperature;humidity
20156;BME280;10238;49.556;10.956;2023-10-09T00:01:39;98960.81;;;11.20;100.00
20156;BME280;10238;49.556;10.956;2023-10-09T00:04:30;98958.31;;;11.19;100.00
20156;BME280;10238;49.556;10.956;2023-10-09T00:07:18;98961.66;;;11.21;100.00
20156;BME280;10238;49.556;10.956;2023-10-09T00:10:09;98954.69;;;11.20;100.00
20156;BME280;10238;49.556;10.956;2023-10-09T00:12:59;98957.19;;;11.21;100.00
20156;BME280;10238;49.556;10.956;2023-10-09T00:15:46;98956.34;;;11.21;100.00
20156;BME280;10238;49.556;10.956;2023-10-09T00:18:39;98953.69;;;11.21;100.00
20156;BME280;10238;49.556;10.956;2023-10-09T00:21:34;98956.34;;;11.21;100.00
20156;BME280;10238;49.556;10.956;2023-10-09T00:24:25;98947.38;;;11.22;100.00
20156;BME280;10238;49.556;10.956;2023-10-09T00:27:14;98940.09;;;11.24;100.00
20156;BME280;10238;49.556;10.956;2023-10-09T00:30:07;98931.25;;;11.23;100.00
20156;BME280;10238;49.556;10.956;2023-10-09T00:32:56;98927.50;;;11.26;100.00
20156;BME280;10238;49.556;10.956;2023-10-09T00:35:48;98923.84;;;11.27;100.00
20156;BME280;10238;49.556;10.956;2023-10-09T00:38:42;98914.56;;;11.31;100.00
20156;BME280;10238;49.556;10.956;2023-10-09T00:41:32;98908.28;;;11.32;100.00
20156;BME280;10238;49.556;10.956;2023-10-09T00:44:21;98903.94;;;11.31;100.00
20156;BME280;10238;49.556;10.956;2023-10-09T00:47:13;98897.47;;;11.33;100.00
20156;BME280;10238;49.556;10.956;2023-10-09T00:50:09;98895.66;;;11.34;100.00
20156;BME280;10238;49.556;10.956;2023-10-09T00:53:07;98891.72;;;11.38;100.00
20156;BME280;10238;49.556;10.956;2023-10-09T00:56:04;98889.03;;;11.38;100.00
20156;BME280;10238;49.556;10.956;2023-10-09T00:59:06;98888.09;;;11.39;100.00
20156;BME280;10238;49.556;10.956;2023-10-09T01:02:01;98882.47;;;11.42;100.00
20156;BME280;10238;49.556;10.956;2023-10-09T01:04:54;98885.13;;;11.42;100.00
20156;BME280;10238;49.556;10.956;2023-10-09T01:07:42;98885.50;;;11.47;100.00
20156;BME280;10238;49.556;10.956;2023-10-09T01:10:44;98880.88;;;11.49;100.00
20156;BME280;10238;49.556;10.956;2023-10-09T01:13:41;98870.88;;;11.60;100.00
20156;BME280;10238;49.556;10.956;2023-10-09T01:16:40;98879.44;;;11.54;100.00
20156;BME280;10238;49.556;10.956;2023-10-09T01:19:29;98875.94;;;11.54;100.00
20156;BME280;10238;49.556;10.956;2023-10-09T01:22:20;98865.44;;;11.52;100.00
20156;BME280;10238;49.556;10.956;2023-10-09T01:25:10;98866.00;;;11.56;100.00
20156;BME280;10238;49.556;10.956;2023-10-09T01:27:57;98866.81;;;11.66;100.00
20156;BME280;10238;49.556;10.956;2023-10-09T01:30:45;98862.31;;;11.66;100.00
20156;BME280;10238;49.556;10.956;2023-10-09T01:33:34;98855.47;;;11.64;100.00
20156;BME280;10238;49.556;10.956;2023-10-09T01:36:23;98859.22;;;11.61;100.00
20156;BME280;10238;49.556;10.956;2023-10-09T01:39:18;98862.75;;;11.62;100.00
20156;BME280;10238;49.556;10.956;2023-10-09T01:42:11;98843.25;;;11.61;100.00
20156;BME280;10238;49.556;10.956;2023-10-09T01:45:10;98840.88;;;11.68;100.00
20156;BME280;10238;49.556;10.956;2023-10-09T01:48:14;98837.59;;;11.74;100.00
20156;BME280;10238;49.556;10.956;2023-10-09T01:51:14;98841.88;;;11.67;100.00
20156;BME280;10238;49.556;10.956;2023-10-09T01:54:05;98840.16;;;11.66;100.00
20156;BME280;10238;49.556;10.956;2023-10-09T01:56:52;98841.16;;;11.65;100.00
20156;BME280;10238;49.556;10.956;2023-10-09T01:59:44;98844.81;;;11.64;100.00
20156;BME280;10238;49.556;10.956;2023-10-09T02:02:35;98836.84;;;11.64;100.00
20156;BME280;10238;49.556;10.956;2023-10-09T02:05:23;98831.38;;;11.65;100.00
20156;BME280;10238;49.556;10.956;2023-10-09T02:08:14;98825.88;;;11.67;100.00
20156;BME280;10238;49.556;10.956;2023-10-09T02:11:07;98831.22;;;11.67;100.00
20156;BME280;10238;49.556;10.956;2023-10-09T02:14:01;98821.53;;;11.66;100.00
20156;BME280;10238;49.556;10.956;2023-10-09T02:16:52;98818.56;;;11.69;100.00
20156;BME280;10238;49.556;10.956;2023-10-09T02:19:50;98819.41;;;11.69;100.00
20156;BME280;10238;49.556;10.956;2023-10-09T02:22:38;98815.75;;;11.70;100.00
20156;BME280;10238;49.556;10.956;2023-10-09T02:25:27;98823.59;;;11.72;100.00
20156;BME280;10238;49.556;10.956;2023-10-09T02:28:20;98816.91;;;11.68;100.00
20156;BME280;10238;49.556;10.956;2023-10-09T02:31:11;98814.31;;;11.76;100.00
20156;BME280;10238;49.556;10.956;2023-10-09T02:34:01;98821.09;;;11.70;100.00
20156;BME280;10238;49.556;10.956;2023-10-09T02:36:51;98813.25;;;11.69;100.00
20156;BME280;10238;49.556;10.956;2023-10-09T02:39:44;98808.75;;;11.69;100.00
20156;BME280;10238;49.556;10.956;2023-10-09T02:42:34;98804.25;;;11.70;100.00
20156;BME280;10238;49.556;10.956;2023-10-09T02:45:22;98802.28;;;11.72;100.00
20156;BME280;10238;49.556;10.956;2023-10-09T02:48:16;98806.25;;;11.68;100.00
20156;BME280;10238;49.556;10.956;2023-10-09T02:51:07;98809.56;;;11.70;100.00
20156;BME280;10238;49.556;10.956;2023-10-09T02:54:03;98804.59;;;11.67;100.00
20156;BME280;10238;49.556;10.956;2023-10-09T02:57:13;98798.25;;;11.68;100.00
20156;BME280;10238;49.556;10.956;2023-10-09T03:00:09;98800.06;;;11.67;100.00
20156;BME280;10238;49.556;10.956;2023-10-09T03:03:06;98799.56;;;11.64;100.00
20156;BME280;10238;49.556;10.956;2023-10-09T03:05:54;98802.22;;;11.64;100.00
20156;BME280;10238;49.556;10.956;2023-10-09T03:08:43;98808.78;;;11.60;100.00
20156;BME280;10238;49.556;10.956;2023-10-09T03:11:33;98802.09;;;11.56;100.00
20156;BME280;10238;49.556;10.956;2023-10-09T03:14:22;98795.75;;;11.57;100.00
20156;BME280;10238;49.556;10.956;2023-10-09T03:17:13;98789.47;;;11.58;100.00
20156;BME280;10238;49.556;10.956;2023-10-09T03:20:03;98790.88;;;11.52;100.00
20156;BME280;10238;49.556;10.956;2023-10-09T03:23:02;98781.38;;;11.50;100.00
20156;BME280;10238;49.556;10.956;2023-10-09T03:25:51;98786.84;;;11.48;100.00
20156;BME280;10238;49.556;10.956;2023-10-09T03:28:49;98786.34;;;11.45;100.00
20156;BME280;10238;49.556;10.956;2023-10-09T03:31:38;98789.00;;;11.45;100.00
20156;BME280;10238;49.556;10.956;2023-10-09T03:34:29;98782.28;;;11.41;100.00
20156;BME280;10238;49.556;10.956;2023-10-09T03:37:18;98784.28;;;11.39;100.00
20156;BME280;10238;49.556;10.956;2023-10-09T03:40:10;98788.59;;;11.40;100.00
20156;BME280;10238;49.556;10.956;2023-10-09T03:43:05;98781.75;;;11.37;100.00
20156;BME280;10238;49.556;10.956;2023-10-09T03:45:53;98774.22;;;11.33;100.00
20156;BME280;10238;49.556;10.956;2023-10-09T03:48:41;98777.16;;;11.30;100.00
20156;BME280;10238;49.556;10.956;2023-10-09T03:51:31;98782.09;;;11.25;100.00
20156;BME280;10238;49.556;10.956;2023-10-09T03:54:21;98779.06;;;11.20;100.00
20156;BME280;10238;49.556;10.956;2023-10-09T03:57:10;98772.31;;;11.16;100.00
20156;BME280;10238;49.556;10.956;2023-10-09T04:00:01;98770.66;;;11.15;100.00
20156;BME280;10238;49.556;10.956;2023-10-09T04:02:58;98773.91;;;11.09;100.00
20156;BME280;10238;49.556;10.956;2023-10-09T04:05:46;98774.34;;;11.04;100.00
20156;BME280;10238;49.556;10.956;2023-10-09T04:08:37;98769.19;;;11.02;100.00
20156;BME280;10238;49.556;10.956;2023-10-09T04:11:33;98762.63;;;10.97;100.00
20156;BME280;10238;49.556;10.956;2023-10-09T04:14:22;98763.06;;;10.92;100.00
20156;BME280;10238;49.556;10.956;2023-10-09T04:17:14;98765.34;;;10.87;100.00
20156;BME280;10238;49.556;10.956;2023-10-09T04:20:16;98770.97;;;10.84;100.00
20156;BME280;10238;49.556;10.956;2023-10-09T04:23:35;98764.22;;;10.80;100.00
20156;BME280;10238;49.556;10.956;2023-10-09T04:26:44;98767.22;;;10.77;100.00
20156;BME280;10238;49.556;10.956;2023-10-09T04:29:33;98751.00;;;10.71;100.00
20156;BME280;10238;49.556;10.956;2023-10-09T04:32:26;98751.28;;;10.68;100.00
20156;BME280;10238;49.556;10.956;2023-10-09T04:35:15;98734.75;;;10.64;100.00
20156;BME280;10238;49.556;10.956;2023-10-09T04:38:10;98740.41;;;10.61;100.00
20156;BME280;10238;49.556;10.956;2023-10-09T04:40:57;98734.69;;;10.56;100.00
20156;BME280;10238;49.556;10.956;2023-10-09T04:43:45;98732.59;;;10.50;100.00
20156;BME280;10238;49.556;10.956;2023-10-09T04:46:32;98742.81;;;10.45;100.00
20156;BME280;10238;49.556;10.956;2023-10-09T04:49:31;98728.13;;;10.41;100.00
20156;BME280;10238;49.556;10.956;2023-10-09T04:52:32;98732.38;;;10.34;100.00
20156;BME280;10238;49.556;10.956;2023-10-09T04:55:37;98740.63;;;10.31;100.00
20156;BME280;10238;49.556;10.956;2023-10-09T04:58:25;98736.59;;;10.27;100.00
20156;BME280;10238;49.556;10.956;2023-10-09T05:01:13;98723.72;;;10.23;100.00
20156;BME280;10238;49.556;10.956;2023-10-09T05:04:03;98732.69;;;10.22;100.00
20156;BME280;10238;49.556;10.956;2023-10-09T05:07:08;98739.38;;;10.16;100.00
20156;BME280;10238;49.556;10.956;2023-10-09T05:10:10;98748.63;;;10.12;100.00
20156;BME280;10238;49.556;10.956;2023-10-09T05:13:04;98747.91;;;10.10;100.00
20156;BME280;10238;49.556;10.956;2023-10-09T05:15:57;98752.56;;;10.08;100.00
20156;BME280;10238;49.556;10.956;2023-10-09T05:18:45;98758.13;;;10.05;100.00
20156;BME280;10238;49.556;10.956;2023-10-09T05:21:43;98760.91;;;10.04;100.00
20156;BME280;10238;49.556;10.956;2023-10-09T05:24:35;98760.34;;;10.00;100.00
20156;BME280;10238;49.556;10.956;2023-10-09T05:27:33;98764.00;;;9.99;100.00
20156;BME280;10238;49.556;10.956;2023-10-09T05:30:32;98763.41;;;9.96;100.00
20156;BME280;10238;49.556;10.956;2023-10-09T05:33:26;98755.72;;;9.93;100.00
20156;BME280;10238;49.556;10.956;2023-10-09T05:36:20;98755.19;;;9.89;100.00
20156;BME280;10238;49.556;10.956;2023-10-09T05:39:22;98751.16;;;9.85;100.00
20156;BME280;10238;49.556;10.956;2023-10-09T05:42:30;98745.69;;;9.87;100.00
20156;BME280;10238;49.556;10.956;2023-10-09T05:45:31;98751.16;;;9.85;100.00
20156;BME280;10238;49.556;10.956;2023-10-09T05:48:47;98756.75;;;9.82;100.00
20156;BME280;10238;49.556;10.956;2023-10-09T05:51:55;98761.22;;;9.82;100.00
20156;BME280;10238;49.556;10.956;2023-10-09T05:55:02;98756.47;;;9.85;100.00
20156;BME280;10238;49.556;10.956;2023-10-09T05:58:23;98761.50;;;9.88;100.00
20156;BME280;10238;49.556;10.956;2023-10-09T06:01:28;98758.97;;;9.96;100.00
20156;BME280;10238;49.556;10.956;2023-10-09T06:04:34;98751.69;;;9.98;100.00
20156;BME280;10238;49.556;10.956;2023-10-09T06:07:36;98763.44;;;10.05;100.00
20156;BME280;10238;49.556;10.956;2023-10-09T06:10:48;98755.19;;;10.18;100.00
20156;BME280;10238;49.556;10.956;2023-10-09T06:13:36;98768.72;;;10.34;100.00
20156;BME280;10238;49.556;10.956;2023-10-09T06:16:32;98766.44;;;10.48;100.00
20156;BME280;10238;49.556;10.956;2023-10-09T06:19:28;98765.47;;;10.49;100.00
20156;BME280;10238;49.556;10.956;2023-10-09T06:22:18;98771.09;;;10.46;100.00
20156;BME280;10238;49.556;10.956;2023-10-09T06:25:22;98774.28;;;10.50;100.00
20156;BME280;10238;49.556;10.956;2023-10-09T06:28:19;98780.56;;;10.58;100.00
20156;BME280;10238;49.556;10.956;2023-10-09T06:31:21;98781.75;;;10.73;100.00
20156;BME280;10238;49.556;10.956;2023-10-09T06:34:35;98775.56;;;10.82;100.00
20156;BME280;10238;49.556;10.956;2023-10-09T06:37:33;98780.88;;;10.92;100.00
20156;BME280;10238;49.556;10.956;2023-10-09T06:40:48;98774.78;;;10.99;100.00
20156;BME280;10238;49.556;10.956;2023-10-09T06:43:53;98784.25;;;11.12;100.00
20156;BME280;10238;49.556;10.956;2023-10-09T06:46:42;98784.53;;;11.18;100.00
20156;BME280;10238;49.556;10.956;2023-10-09T06:49:39;98780.97;;;11.27;100.00
20156;BME280;10238;49.556;10.956;2023-10-09T06:52:46;98789.81;;;11.45;100.00
20156;BME280;10238;49.556;10.956;2023-10-09T06:56:12;98790.88;;;11.62;100.00
20156;BME280;10238;49.556;10.956;2023-10-09T06:59:10;98789.28;;;11.69;100.00
20156;BME280;10238;49.556;10.956;2023-10-09T07:02:05;98793.00;;;11.76;100.00
20156;BME280;10238;49.556;10.956;2023-10-09T07:05:22;98792.09;;;11.85;100.00
20156;BME280;10238;49.556;10.956;2023-10-09T07:08:17;98801.16;;;11.92;76.46
20156;BME280;10238;49.556;10.956;2023-10-09T07:11:18;98793.94;;;12.02;52.64
20156;BME280;10238;49.556;10.956;2023-10-09T07:14:29;98792.38;;;12.17;41.46
20156;BME280;10238;49.556;10.956;2023-10-09T07:17:50;98796.50;;;12.29;23.07
20156;BME280;10238;49.556;10.956;2023-10-09T07:20:39;98812.22;;;12.40;18.30
20156;BME280;10238;49.556;10.956;2023-10-09T07:23:31;98813.16;;;12.48;15.89
20156;BME280;10238;49.556;10.956;2023-10-09T07:26:20;98824.41;;;12.60;14.04
20156;BME280;10238;49.556;10.956;2023-10-09T07:29:22;98819.94;;;12.68;13.85
20156;BME280;10238;49.556;10.956;2023-10-09T07:32:11;98819.81;;;12.70;15.80
20156;BME280;10238;49.556;10.956;2023-10-09T07:35:08;98825.00;;;12.79;22.49
20156;BME280;10238;49.556;10.956;2023-10-09T07:38:16;98829.63;;;12.95;30.32
20156;BME280;10238;49.556;10.956;2023-10-09T07:41:05;98833.09;;;13.13;49.84
20156;BME280;10238;49.556;10.956;2023-10-09T07:44:07;98824.34;;;13.37;86.74
20156;BME280;10238;49.556;10.956;2023-10-09T07:47:20;98835.31;;;13.59;100.00
20156;BME280;10238;49.556;10.956;2023-10-09T07:50:21;98834.53;;;13.83;100.00
20156;BME280;10238;49.556;10.956;2023-10-09T07:53:08;98832.56;;;14.01;100.00
20156;BME280;10238;49.556;10.956;2023-10-09T07:56:04;98831.75;;;14.16;100.00
20156;BME280;10238;49.556;10.956;2023-10-09T07:58:53;98826.59;;;14.23;100.00
20156;BME280;10238;49.556;10.956;2023-10-09T08:01:48;98823.44;;;14.27;100.00
20156;BME280;10238;49.556;10.956;2023-10-09T08:04:40;98829.47;;;14.29;100.00
20156;BME280;10238;49.556;10.956;2023-10-09T08:07:36;98824.78;;;14.31;100.00
20156;BME280;10238;49.556;10.956;2023-10-09T08:10:47;98830.13;;;14.39;100.00
20156;BME280;10238;49.556;10.956;2023-10-09T08:13:51;98824.78;;;14.47;100.00
20156;BME280;10238;49.556;10.956;2023-10-09T08:16:47;98816.59;;;14.65;100.00
20156;BME280;10238;49.556;10.956;2023-10-09T08:19:34;98812.41;;;14.70;100.00
20156;BME280;10238;49.556;10.956;2023-10-09T08:22:39;98817.38;;;14.81;100.00
20156;BME280;10238;49.556;10.956;2023-10-09T08:25:38;98826.06;;;14.99;100.00
20156;BME280;10238;49.556;10.956;2023-10-09T08:28:45;98828.00;;;15.13;100.00
20156;BME280;10238;49.556;10.956;2023-10-09T08:31:32;98827.97;;;15.30;100.00
20156;BME280;10238;49.556;10.956;2023-10-09T08:34:32;98821.09;;;15.35;100.00
20156;BME280;10238;49.556;10.956;2023-10-09T08:37:43;98818.09;;;15.38;100.00
20156;BME280;10238;49.556;10.956;2023-10-09T08:40:35;98826.63;;;15.42;100.00
20156;BME280;10238;49.556;10.956;2023-10-09T08:43:26;98830.44;;;15.47;100.00
20156;BME280;10238;49.556;10.956;2023-10-09T08:46:23;98819.88;;;15.54;100.00
20156;BME280;10238;49.556;10.956;2023-10-09T08:49:13;98825.06;;;15.55;100.00
20156;BME280;10238;49.556;10.956;2023-10-09T08:52:02;98816.69;;;15.58;100.00
20156;BME280;10238;49.556;10.956;2023-10-09T08:54:52;98808.94;;;15.63;100.00
20156;BME280;10238;49.556;10.956;2023-10-09T08:57:40;98807.06;;;15.72;100.00
20156;BME280;10238;49.556;10.956;2023-10-09T09:00:28;98807.44;;;15.91;100.00
20156;BME280;10238;49.556;10.956;2023-10-09T09:03:20;98806.78;;;16.12;100.00
20156;BME280;10238;49.556;10.956;2023-10-09T09:06:09;98799.81;;;16.25;100.00
20156;BME280;10238;49.556;10.956;2023-10-09T09:09:10;98807.97;;;16.32;100.00
20156;BME280;10238;49.556;10.956;2023-10-09T09:12:05;98814.31;;;16.39;100.00
20156;BME280;10238;49.556;10.956;2023-10-09T09:14:54;98807.50;;;16.51;100.00
20156;BME280;10238;49.556;10.956;2023-10-09T09:17:44;98805.88;;;16.64;100.00
20156;BME280;10238;49.556;10.956;2023-10-09T09:20:32;98823.38;;;16.60;100.00
20156;BME280;10238;49.556;10.956;2023-10-09T09:23:23;98820.88;;;16.59;100.00
20156;BME280;10238;49.556;10.956;2023-10-09T09:26:14;98830.22;;;16.63;100.00
20156;BME280;10238;49.556;10.956;2023-10-09T09:29:07;98819.22;;;16.58;100.00
20156;BME280;10238;49.556;10.956;2023-10-09T09:31:56;98846.69;;;16.60;100.00
20156;BME280;10238;49.556;10.956;2023-10-09T09:34:54;98824.50;;;16.66;100.00
20156;BME280;10238;49.556;10.956;2023-10-09T09:37:52;98833.22;;;16.68;100.00
20156;BME280;10238;49.556;10.956;2023-10-09T09:40:41;98847.00;;;16.65;100.00
20156;BME280;10238;49.556;10.956;2023-10-09T09:43:31;98852.41;;;16.57;100.00
20156;BME280;10238;49.556;10.956;2023-10-09T09:46:23;98848.00;;;16.64;100.00
20156;BME280;10238;49.556;10.956;2023-10-09T09:49:22;98838.09;;;16.64;100.00
20156;BME280;10238;49.556;10.956;2023-10-09T09:52:10;98843.38;;;16.58;100.00
20156;BME280;10238;49.556;10.956;2023-10-09T09:54:58;98853.44;;;16.56;100.00
20156;BME280;10238;49.556;10.956;2023-10-09T09:57:49;98857.44;;;16.60;100.00
20156;BME280;10238;49.556;10.956;2023-10-09T10:00:39;98869.97;;;16.67;100.00
20156;BME280;10238;49.556;10.956;2023-10-09T10:03:37;98867.59;;;16.72;100.00
20156;BME280;10238;49.556;10.956;2023-10-09T10:06:28;98873.72;;;16.81;100.00
20156;BME280;10238;49.556;10.956;2023-10-09T10:09:37;98864.84;;;16.95;100.00
20156;BME280;10238;49.556;10.956;2023-10-09T10:12:50;98868.47;;;17.02;100.00
20156;BME280;10238;49.556;10.956;2023-10-09T10:16:06;98868.75;;;17.07;100.00
20156;BME280;10238;49.556;10.956;2023-10-09T10:19:04;98868.69;;;17.15;100.00
20156;BME280;10238;49.556;10.956;2023-10-09T10:22:24;98856.56;;;17.19;100.00
20156;BME280;10238;49.556;10.956;2023-10-09T10:25:32;98853.66;;;17.06;100.00
20156;BME280;10238;49.556;10.956;2023-10-09T10:28:23;98833.63;;;16.94;100.00
20156;BME280;10238;49.556;10.956;2023-10-09T10:31:54;98845.59;;;16.91;100.00
20156;BME280;10238;49.556;10.956;2023-10-09T10:34:54;98848.34;;;16.98;100.00
20156;BME280;10238;49.556;10.956;2023-10-09T10:37:46;98838.09;;;17.16;100.00
20156;BME280;10238;49.556;10.956;2023-10-09T10:40:37;98828.56;;;17.28;100.00
20156;BME280;10238;49.556;10.956;2023-10-09T10:43:32;98820.50;;;17.28;100.00
20156;BME280;10238;49.556;10.956;2023-10-09T10:46:41;98817.72;;;17.36;100.00
20156;BME280;10238;49.556;10.956;2023-10-09T10:49:31;98809.41;;;17.46;100.00
20156;BME280;10238;49.556;10.956;2023-10-09T10:52:26;98803.06;;;17.53;100.00
20156;BME280;10238;49.556;10.956;2023-10-09T10:55:29;98806.53;;;17.62;100.00
20156;BME280;10238;49.556;10.956;2023-10-09T10:58:39;98810.69;;;17.64;100.00
20156;BME280;10238;49.556;10.956;2023-10-09T11:01:35;98804.75;;;17.69;100.00
20156;BME280;10238;49.556;10.956;2023-10-09T11:04:40;98803.84;;;17.83;100.00
20156;BME280;10238;49.556;10.956;2023-10-09T11:07:32;98796.88;;;17.88;100.00
20156;BME280;10238;49.556;10.956;2023-10-09T11:10:22;98782.66;;;17.94;100.00
20156;BME280;10238;49.556;10.956;2023-10-09T11:13:21;98775.19;;;18.11;100.00
20156;BME280;10238;49.556;10.956;2023-10-09T11:16:20;98773.22;;;18.19;100.00
20156;BME280;10238;49.556;10.956;2023-10-09T11:19:29;98770.78;;;18.24;100.00
20156;BME280;10238;49.556;10.956;2023-10-09T11:22:18;98762.50;;;18.26;100.00
20156;BME280;10238;49.556;10.956;2023-10-09T11:25:16;98755.53;;;18.31;100.00
20156;BME280;10238;49.556;10.956;2023-10-09T11:28:19;98779.75;;;18.31;100.00
20156;BME280;10238;49.556;10.956;2023-10-09T11:31:29;98797.69;;;18.24;100.00
20156;BME280;10238;49.556;10.956;2023-10-09T11:34:20;98781.94;;;18.21;100.00
20156;BME280;10238;49.556;10.956;2023-10-09T11:37:15;98756.28;;;18.25;100.00
20156;BME280;10238;49.556;10.956;2023-10-09T11:40:36;98755.53;;;18.31;100.00
20156;BME280;10238;49.556;10.956;2023-10-09T11:43:52;98743.25;;;18.43;100.00
20156;BME280;10238;49.556;10.956;2023-10-09T11:46:57;98750.34;;;18.51;100.00
20156;BME280;10238;49.556;10.956;2023-10-09T11:50:01;98772.31;;;18.54;100.00
20156;BME280;10238;49.556;10.956;2023-10-09T11:53:03;98800.84;;;18.49;100.00
20156;BME280;10238;49.556;10.956;2023-10-09T11:55:57;98800.78;;;18.42;100.00
20156;BME280;10238;49.556;10.956;2023-10-09T11:58:47;98825.81;;;18.36;100.00
20156;BME280;10238;49.556;10.956;2023-10-09T12:01:36;98826.53;;;18.30;100.00
20156;BME280;10238;49.556;10.956;2023-10-09T12:04:29;98826.66;;;18.22;100.00
20156;BME280;10238;49.556;10.956;2023-10-09T12:07:17;98833.63;;;18.17;100.00
20156;BME280;10238;49.556;10.956;2023-10-09T12:10:07;98833.16;;;18.13;100.00
20156;BME280;10238;49.556;10.956;2023-10-09T12:12:57;98796.72;;;18.11;100.00
20156;BME280;10238;49.556;10.956;2023-10-09T12:15:45;98794.41;;;18.08;100.00
20156;BME280;10238;49.556;10.956;2023-10-09T12:18:33;98753.41;;;18.06;100.00
20156;BME280;10238;49.556;10.956;2023-10-09T12:21:21;98720.03;;;18.00;100.00
20156;BME280;10238;49.556;10.956;2023-10-09T12:24:10;98694.34;;;17.98;100.00
20156;BME280;10238;49.556;10.956;2023-10-09T12:26:59;98672.84;;;17.98;100.00
20156;BME280;10238;49.556;10.956;2023-10-09T12:29:48;98638.91;;;17.97;100.00
20156;BME280;10238;49.556;10.956;2023-10-09T12:32:36;98646.19;;;18.03;100.00
20156;BME280;10238;49.556;10.956;2023-10-09T12:35:24;98649.97;;;18.08;100.00
20156;BME280;10238;49.556;10.956;2023-10-09T12:38:12;98635.53;;;18.16;100.00
20156;BME280;10238;49.556;10.956;2023-10-09T12:41:06;98628.34;;;18.23;100.00
20156;BME280;10238;49.556;10.956;2023-10-09T12:44:04;98628.81;;;18.33;100.00
20156;BME280;10238;49.556;10.956;2023-10-09T12:47:00;98621.44;;;18.41;100.00
20156;BME280;10238;49.556;10.956;2023-10-09T12:49:51;98603.84;;;18.45;100.00
20156;BME280;10238;49.556;10.956;2023-10-09T12:52:40;98597.06;;;18.49;100.00
20156;BME280;10238;49.556;10.956;2023-10-09T12:55:29;98585.91;;;18.52;100.00
20156;BME280;10238;49.556;10.956;2023-10-09T12:58:19;98579.09;;;18.56;100.00
20156;BME280;10238;49.556;10.956;2023-10-09T13:01:07;98581.19;;;18.61;100.00
20156;BME280;10238;49.556;10.956;2023-10-09T13:03:59;98579.31;;;18.61;100.00
20156;BME280;10238;49.556;10.956;2023-10-09T13:06:47;98587.38;;;18.61;100.00
20156;BME280;10238;49.556;10.956;2023-10-09T13:09:38;98591.56;;;18.64;100.00
20156;BME280;10238;49.556;10.956;2023-10-09T13:12:30;98597.34;;;18.67;100.00
20156;BME280;10238;49.556;10.956;2023-10-09T13:15:18;98601.34;;;18.71;100.00
20156;BME280;10238;49.556;10.956;2023-10-09T13:18:07;98582.69;;;18.76;100.00
20156;BME280;10238;49.556;10.956;2023-10-09T13:20:56;98572.34;;;18.80;100.00
20156;BME280;10238;49.556;10.956;2023-10-09T13:23:44;98582.53;;;18.84;100.00
20156;BME280;10238;49.556;10.956;2023-10-09T13:26:34;98576.16;;;18.92;100.00
20156;BME280;10238;49.556;10.956;2023-10-09T13:29:22;98583.19;;;18.99;100.00
20156;BME280;10238;49.556;10.956;2023-10-09T13:32:10;98574.28;;;19.05;100.00
20156;BME280;10238;49.556;10.956;2023-10-09T13:35:02;98571.84;;;19.10;100.00
20156;BME280;10238;49.556;10.956;2023-10-09T13:37:53;98562.94;;;19.16;100.00
20156;BME280;10238;49.556;10.956;2023-10-09T13:40:41;98557.34;;;19.24;100.00
20156;BME280;10238;49.556;10.956;2023-10-09T13:43:29;98547.88;;;19.35;100.00
20156;BME280;10238;49.556;10.956;2023-10-09T13:46:16;98548.91;;;19.41;100.00
20156;BME280;10238;49.556;10.956;2023-10-09T13:49:04;98543.09;;;19.44;100.00
20156;BME280;10238;49.556;10.956;2023-10-09T13:51:56;98543.53;;;19.47;100.00
20156;BME280;10238;49.556;10.956;2023-10-09T13:54:45;98551.00;;;19.52;100.00
20156;BME280;10238;49.556;10.956;2023-10-09T13:57:36;98555.34;;;19.53;100.00
20156;BME280;10238;49.556;10.956;2023-10-09T14:00:24;98552.84;;;19.51;100.00
20156;BME280;10238;49.556;10.956;2023-10-09T14:03:20;98559.69;;;19.54;100.00
20156;BME280;10238;49.556;10.956;2023-10-09T14:06:10;98570.47;;;19.54;100.00
20156;BME280;10238;49.556;10.956;2023-10-09T14:09:00;98578.56;;;19.54;100.00
20156;BME280;10238;49.556;10.956;2023-10-09T14:11:52;98574.22;;;19.53;100.00
20156;BME280;10238;49.556;10.956;2023-10-09T14:14:42;98580.03;;;19.50;100.00
20156;BME280;10238;49.556;10.956;2023-10-09T14:17:34;98611.16;;;19.46;100.00
20156;BME280;10238;49.556;10.956;2023-10-09T14:20:21;98621.09;;;19.45;100.00
20156;BME280;10238;49.556;10.956;2023-10-09T14:23:17;98618.59;;;19.44;100.00
20156;BME280;10238;49.556;10.956;2023-10-09T14:26:07;98624.41;;;19.41;100.00
20156;BME280;10238;49.556;10.956;2023-10-09T14:28:57;98622.31;;;19.36;100.00
20156;BME280;10238;49.556;10.956;2023-10-09T14:31:44;98620.03;;;19.33;100.00
20156;BME280;10238;49.556;10.956;2023-10-09T14:34:46;98630.41;;;19.30;100.00
20156;BME280;10238;49.556;10.956;2023-10-09T14:37:37;98609.88;;;19.29;100.00
20156;BME280;10238;49.556;10.956;2023-10-09T14:40:26;98604.84;;;19.25;100.00
20156;BME280;10238;49.556;10.956;2023-10-09T14:43:18;98613.34;;;19.22;100.00
20156;BME280;10238;49.556;10.956;2023-10-09T14:46:16;98615.16;;;19.15;100.00
20156;BME280;10238;49.556;10.956;2023-10-09T14:49:09;98618.91;;;19.08;100.00
20156;BME280;10238;49.556;10.956;2023-10-09T14:52:01;98618.84;;;19.01;100.00
20156;BME280;10238;49.556;10.956;2023-10-09T14:54:48;98625.50;;;18.99;100.00
20156;BME280;10238;49.556;10.956;2023-10-09T14:57:37;98630.44;;;18.95;100.00
20156;BME280;10238;49.556;10.956;2023-10-09T15:00:24;98634.56;;;18.91;100.00
20156;BME280;10238;49.556;10.956;2023-10-09T15:03:14;98653.00;;;18.88;100.00